sensor_id;sensor_type;location;lat;lon;timestamp;temperature;humidity
19000;DHT22;9633;50.980;13.850;2023-06-04T00:00:55;5.00;99.90
19000;DHT22;9633;50.980;13.850;2023-06-04T00:02:29;4.90;99.90
19000;DHT22;9633;50.980;13.850;2023-06-04T00:04:02;4.90;99.90
19000;DHT22;9633;50.980;13.850;2023-06-04T00:05:36;4.90;99.90
19000;DHT22;9633;50.980;13.850;2023-06-04T00:07:09;4.90;99.90
19000;DHT22;9633;50.980;13.850;2023-06-04T00:08:42;4.90;99.90
19000;DHT22;9633;50.980;13.850;2023-06-04T00:10:15;4.90;99.90
19000;DHT22;9633;50.980;13.850;2023-06-04T00:11:50;4.80;99.90
19000;DHT22;9633;50.980;13.850;2023-06-04T00:13:22;4.80;99.90
19000;DHT22;9633;50.980;13.850;2023-06-04T00:14:55;4.70;99.90
19000;DHT22;9633;50.980;13.850;2023-06-04T00:16:28;4.70;99.90
19000;DHT22;9633;50.980;13.850;2023-06-04T00:18:00;4.70;99.90
19000;DHT22;9633;50.980;13.850;2023-06-04T00:19:34;4.60;99.90
19000;DHT22;9633;50.980;13.850;2023-06-04T00:21:06;4.60;99.90
19000;DHT22;9633;50.980;13.850;2023-06-04T00:22:39;4.60;99.90
19000;DHT22;9633;50.980;13.850;2023-06-04T00:24:13;4.60;99.90
19000;DHT22;9633;50.980;13.850;2023-06-04T00:25:46;4.50;99.90
19000;DHT22;9633;50.980;13.850;2023-06-04T00:27:21;4.50;99.90
19000;DHT22;9633;50.980;13.850;2023-06-04T00:28:55;4.50;99.90
19000;DHT22;9633;50.980;13.850;2023-06-04T00:30:28;4.40;99.90
19000;DHT22;9633;50.980;13.850;2023-06-04T00:32:01;4.40;99.90
19000;DHT22;9633;50.980;13.850;2023-06-04T00:33:33;4.40;99.90
19000;DHT22;9633;50.980;13.850;2023-06-04T00:35:07;4.40;99.90
19000;DHT22;9633;50.980;13.850;2023-06-04T00:36:42;4.30;99.90
19000;DHT22;9633;50.980;13.850;2023-06-04T00:38:15;4.30;99.90
19000;DHT22;9633;50.980;13.850;2023-06-04T00:39:48;4.30;99.90
19000;DHT22;9633;50.980;13.850;2023-06-04T00:41:20;4.30;99.90
19000;DHT22;9633;50.980;13.850;2023-06-04T00:42:55;4.20;99.90
19000;DHT22;9633;50.980;13.850;2023-06-04T00:44:28;4.20;99.90
19000;DHT22;9633;50.980;13.850;2023-06-04T00:46:02;4.10;99.90
19000;DHT22;9633;50.980;13.850;2023-06-04T00:47:35;4.10;99.90
19000;DHT22;9633;50.980;13.850;2023-06-04T00:49:09;4.10;99.90
19000;DHT22;9633;50.980;13.850;2023-06-04T00:50:44;4.30;99.90
19000;DHT22;9633;50.980;13.850;2023-06-04T00:52:18;4.10;99.90
19000;DHT22;9633;50.980;13.850;2023-06-04T00:53:52;4.10;99.90
19000;DHT22;9633;50.980;13.850;2023-06-04T00:55:25;4.10;99.90
19000;DHT22;9633;50.980;13.850;2023-06-04T00:56:59;4.10;99.90
19000;DHT22;9633;50.980;13.850;2023-06-04T00:58:37;4.10;99.90
19000;DHT22;9633;50.980;13.850;2023-06-04T01:00:12;4.10;99.90
19000;DHT22;9633;50.980;13.850;2023-06-04T01:01:50;4.10;99.90
19000;DHT22;9633;50.980;13.850;2023-06-04T01:03:25;4.10;99.90
19000;DHT22;9633;50.980;13.850;2023-06-04T01:05:07;4.10;99.90
19000;DHT22;9633;50.980;13.850;2023-06-04T01:06:44;4.10;99.90
19000;DHT22;9633;50.980;13.850;2023-06-04T01:08:19;4.00;99.90
19000;DHT22;9633;50.980;13.850;2023-06-04T01:09:53;4.00;99.90
19000;DHT22;9633;50.980;13.850;2023-06-04T01:11:33;4.00;99.90
19000;DHT22;9633;50.980;13.850;2023-06-04T01:13:07;4.10;99.90
19000;DHT22;9633;50.980;13.850;2023-06-04T01:14:44;4.00;99.90
19000;DHT22;9633;50.980;13.850;2023-06-04T01:16:17;4.00;99.90
19000;DHT22;9633;50.980;13.850;2023-06-04T01:17:52;4.00;99.90
19000;DHT22;9633;50.980;13.850;2023-06-04T01:19:47;4.00;99.90
19000;DHT22;9633;50.980;13.850;2023-06-04T01:21:24;4.00;99.90
19000;DHT22;9633;50.980;13.850;2023-06-04T01:23:27;3.90;99.90
19000;DHT22;9633;50.980;13.850;2023-06-04T01:25:13;3.90;99.90
19000;DHT22;9633;50.980;13.850;2023-06-04T01:26:51;3.80;99.90
19000;DHT22;9633;50.980;13.850;2023-06-04T01:28:27;3.80;99.90
19000;DHT22;9633;50.980;13.850;2023-06-04T01:30:03;3.80;99.90
19000;DHT22;9633;50.980;13.850;2023-06-04T01:31:36;3.80;99.90
19000;DHT22;9633;50.980;13.850;2023-06-04T01:33:11;3.80;99.90
19000;DHT22;9633;50.980;13.850;2023-06-04T01:34:44;3.70;99.90
19000;DHT22;9633;50.980;13.850;2023-06-04T01:36:17;3.70;99.90
19000;DHT22;9633;50.980;13.850;2023-06-04T01:37:51;3.70;99.90
19000;DHT22;9633;50.980;13.850;2023-06-04T01:39:24;3.70;99.90
19000;DHT22;9633;50.980;13.850;2023-06-04T01:40:57;3.70;99.90
19000;DHT22;9633;50.980;13.850;2023-06-04T01:42:33;3.60;99.90
19000;DHT22;9633;50.980;13.850;2023-06-04T01:44:06;3.70;99.90
19000;DHT22;9633;50.980;13.850;2023-06-04T01:45:40;3.70;99.90
19000;DHT22;9633;50.980;13.850;2023-06-04T01:47:13;3.70;99.90
19000;DHT22;9633;50.980;13.850;2023-06-04T01:48:46;3.60;99.90
19000;DHT22;9633;50.980;13.850;2023-06-04T01:50:21;3.60;99.90
19000;DHT22;9633;50.980;13.850;2023-06-04T01:51:53;3.80;99.90
19000;DHT22;9633;50.980;13.850;2023-06-04T01:53:28;3.80;99.90
19000;DHT22;9633;50.980;13.850;2023-06-04T01:55:01;3.80;99.90
19000;DHT22;9633;50.980;13.850;2023-06-04T01:56:34;3.70;99.90
19000;DHT22;9633;50.980;13.850;2023-06-04T01:58:07;3.70;99.90
19000;DHT22;9633;50.980;13.850;2023-06-04T01:59:41;3.70;99.90
19000;DHT22;9633;50.980;13.850;2023-06-04T02:01:15;3.70;99.90
19000;DHT22;9633;50.980;13.850;2023-06-04T02:02:49;3.70;99.90
19000;DHT22;9633;50.980;13.850;2023-06-04T02:04:21;3.70;99.90
19000;DHT22;9633;50.980;13.850;2023-06-04T02:05:55;3.70;99.90
19000;DHT22;9633;50.980;13.850;2023-06-04T02:07:28;3.60;99.90
19000;DHT22;9633;50.980;13.850;2023-06-04T02:09:03;3.50;99.90
19000;DHT22;9633;50.980;13.850;2023-06-04T02:10:36;3.50;99.90
19000;DHT22;9633;50.980;13.850;2023-06-04T02:12:09;3.50;99.90
19000;DHT22;9633;50.980;13.850;2023-06-04T02:13:45;3.50;99.90
19000;DHT22;9633;50.980;13.850;2023-06-04T02:15:18;3.40;99.90
19000;DHT22;9633;50.980;13.850;2023-06-04T02:16:51;3.40;99.90
19000;DHT22;9633;50.980;13.850;2023-06-04T02:18:26;3.40;99.90
19000;DHT22;9633;50.980;13.850;2023-06-04T02:19:59;3.30;99.90
19000;DHT22;9633;50.980;13.850;2023-06-04T02:21:32;3.30;99.90
19000;DHT22;9633;50.980;13.850;2023-06-04T02:23:06;3.20;99.90
19000;DHT22;9633;50.980;13.850;2023-06-04T02:24:38;3.20;99.90
19000;DHT22;9633;50.980;13.850;2023-06-04T02:26:14;3.20;99.90
19000;DHT22;9633;50.980;13.850;2023-06-04T02:27:47;3.20;99.90
19000;DHT22;9633;50.980;13.850;2023-06-04T02:29:20;3.20;99.90
19000;DHT22;9633;50.980;13.850;2023-06-04T02:30:53;3.20;99.90
19000;DHT22;9633;50.980;13.850;2023-06-04T02:32:28;3.20;99.90
19000;DHT22;9633;50.980;13.850;2023-06-04T02:34:00;3.20;99.90
19000;DHT22;9633;50.980;13.850;2023-06-04T02:35:33;3.20;99.90
19000;DHT22;9633;50.980;13.850;2023-06-04T02:37:07;3.20;99.90
19000;DHT22;9633;50.980;13.850;2023-06-04T02:38:40;3.10;99.90
19000;DHT22;9633;50.980;13.850;2023-06-04T02:40:13;3.20;99.90
19000;DHT22;9633;50.980;13.850;2023-06-04T02:41:45;3.10;99.90
19000;DHT22;9633;50.980;13.850;2023-06-04T02:43:19;3.10;99.90
19000;DHT22;9633;50.980;13.850;2023-06-04T02:44:52;3.10;99.90
19000;DHT22;9633;50.980;13.850;2023-06-04T02:46:24;3.10;99.90
19000;DHT22;9633;50.980;13.850;2023-06-04T02:47:59;3.10;99.90
19000;DHT22;9633;50.980;13.850;2023-06-04T02:49:32;3.00;99.90
19000;DHT22;9633;50.980;13.850;2023-06-04T02:51:06;3.00;99.90
19000;DHT22;9633;50.980;13.850;2023-06-04T02:52:42;3.10;99.90
19000;DHT22;9633;50.980;13.850;2023-06-04T02:54:15;3.10;99.90
19000;DHT22;9633;50.980;13.850;2023-06-04T02:55:49;3.00;99.90
19000;DHT22;9633;50.980;13.850;2023-06-04T02:57:22;3.00;99.90
19000;DHT22;9633;50.980;13.850;2023-06-04T02:58:56;3.00;99.90
19000;DHT22;9633;50.980;13.850;2023-06-04T03:00:29;3.00;99.90
19000;DHT22;9633;50.980;13.850;2023-06-04T03:02:04;3.00;99.90
19000;DHT22;9633;50.980;13.850;2023-06-04T03:03:38;3.10;99.90
19000;DHT22;9633;50.980;13.850;2023-06-04T03:05:14;3.00;99.90
19000;DHT22;9633;50.980;13.850;2023-06-04T03:06:50;3.10;99.90
19000;DHT22;9633;50.980;13.850;2023-06-04T03:08:29;3.00;99.90
19000;DHT22;9633;50.980;13.850;2023-06-04T03:10:04;3.10;99.90
19000;DHT22;9633;50.980;13.850;2023-06-04T03:11:38;3.10;99.90
19000;DHT22;9633;50.980;13.850;2023-06-04T03:13:13;3.10;99.90
19000;DHT22;9633;50.980;13.850;2023-06-04T03:14:47;3.10;99.90
19000;DHT22;9633;50.980;13.850;2023-06-04T03:16:20;3.10;99.90
19000;DHT22;9633;50.980;13.850;2023-06-04T03:17:53;3.10;99.90
19000;DHT22;9633;50.980;13.850;2023-06-04T03:19:28;3.20;99.90
19000;DHT22;9633;50.980;13.850;2023-06-04T03:21:01;3.20;99.90
19000;DHT22;9633;50.980;13.850;2023-06-04T03:22:35;3.20;99.90
19000;DHT22;9633;50.980;13.850;2023-06-04T03:24:07;3.20;99.90
19000;DHT22;9633;50.980;13.850;2023-06-04T03:25:41;3.30;99.90
19000;DHT22;9633;50.980;13.850;2023-06-04T03:27:14;3.30;99.90
19000;DHT22;9633;50.980;13.850;2023-06-04T03:28:46;3.40;99.90
19000;DHT22;9633;50.980;13.850;2023-06-04T03:30:23;3.40;99.90
19000;DHT22;9633;50.980;13.850;2023-06-04T03:32:03;3.50;99.90
19000;DHT22;9633;50.980;13.850;2023-06-04T03:33:37;3.60;99.90
19000;DHT22;9633;50.980;13.850;2023-06-04T03:35:13;3.80;99.90
19000;DHT22;9633;50.980;13.850;2023-06-04T03:36:46;3.90;99.90
19000;DHT22;9633;50.980;13.850;2023-06-04T03:38:19;4.10;99.90
19000;DHT22;9633;50.980;13.850;2023-06-04T03:39:53;4.20;99.90
19000;DHT22;9633;50.980;13.850;2023-06-04T03:41:26;4.30;99.90
19000;DHT22;9633;50.980;13.850;2023-06-04T03:42:58;4.50;99.90
19000;DHT22;9633;50.980;13.850;2023-06-04T03:44:34;4.60;99.90
19000;DHT22;9633;50.980;13.850;2023-06-04T03:46:07;4.80;99.90
19000;DHT22;9633;50.980;13.850;2023-06-04T03:47:41;5.00;99.90
19000;DHT22;9633;50.980;13.850;2023-06-04T03:49:14;5.20;99.90
19000;DHT22;9633;50.980;13.850;2023-06-04T03:50:52;5.30;99.90
19000;DHT22;9633;50.980;13.850;2023-06-04T03:52:25;5.40;99.90
19000;DHT22;9633;50.980;13.850;2023-06-04T03:54:01;5.60;99.90
19000;DHT22;9633;50.980;13.850;2023-06-04T03:55:36;5.70;99.90
19000;DHT22;9633;50.980;13.850;2023-06-04T03:57:11;5.80;99.90
19000;DHT22;9633;50.980;13.850;2023-06-04T03:58:45;5.90;99.90
19000;DHT22;9633;50.980;13.850;2023-06-04T04:00:19;6.00;99.90
19000;DHT22;9633;50.980;13.850;2023-06-04T04:01:56;6.10;99.90
19000;DHT22;9633;50.980;13.850;2023-06-04T04:03:33;6.20;99.90
19000;DHT22;9633;50.980;13.850;2023-06-04T04:05:07;6.30;99.90
19000;DHT22;9633;50.980;13.850;2023-06-04T04:06:43;6.40;99.90
19000;DHT22;9633;50.980;13.850;2023-06-04T04:08:16;6.50;99.90
19000;DHT22;9633;50.980;13.850;2023-06-04T04:09:50;6.60;99.90
19000;DHT22;9633;50.980;13.850;2023-06-04T04:11:24;6.60;99.90
19000;DHT22;9633;50.980;13.850;2023-06-04T04:12:58;6.70;99.90
19000;DHT22;9633;50.980;13.850;2023-06-04T04:14:34;6.80;99.90
19000;DHT22;9633;50.980;13.850;2023-06-04T04:16:08;6.90;99.90
19000;DHT22;9633;50.980;13.850;2023-06-04T04:17:42;7.00;99.90
19000;DHT22;9633;50.980;13.850;2023-06-04T04:19:15;7.00;99.90
19000;DHT22;9633;50.980;13.850;2023-06-04T04:20:49;7.10;99.90
19000;DHT22;9633;50.980;13.850;2023-06-04T04:22:24;7.20;99.90
19000;DHT22;9633;50.980;13.850;2023-06-04T04:23:57;7.20;99.90
19000;DHT22;9633;50.980;13.850;2023-06-04T04:25:30;7.30;99.90
19000;DHT22;9633;50.980;13.850;2023-06-04T04:27:06;7.40;99.90
19000;DHT22;9633;50.980;13.850;2023-06-04T04:28:43;7.50;99.90
19000;DHT22;9633;50.980;13.850;2023-06-04T04:30:16;7.70;99.90
19000;DHT22;9633;50.980;13.850;2023-06-04T04:31:52;7.80;99.90
19000;DHT22;9633;50.980;13.850;2023-06-04T04:33:27;7.90;99.90
19000;DHT22;9633;50.980;13.850;2023-06-04T04:35:05;8.00;99.90
19000;DHT22;9633;50.980;13.850;2023-06-04T04:36:42;8.10;99.90
19000;DHT22;9633;50.980;13.850;2023-06-04T04:38:17;8.20;99.90
19000;DHT22;9633;50.980;13.850;2023-06-04T04:39:55;8.40;99.90
19000;DHT22;9633;50.980;13.850;2023-06-04T04:41:31;8.40;99.90
19000;DHT22;9633;50.980;13.850;2023-06-04T04:43:05;8.50;99.90
19000;DHT22;9633;50.980;13.850;2023-06-04T04:44:40;8.60;99.90
19000;DHT22;9633;50.980;13.850;2023-06-04T04:46:13;8.70;99.90
19000;DHT22;9633;50.980;13.850;2023-06-04T04:47:46;8.90;99.90
19000;DHT22;9633;50.980;13.850;2023-06-04T04:49:19;8.90;99.90
19000;DHT22;9633;50.980;13.850;2023-06-04T04:50:53;9.00;99.90
19000;DHT22;9633;50.980;13.850;2023-06-04T04:52:26;9.00;99.90
19000;DHT22;9633;50.980;13.850;2023-06-04T04:54:01;9.00;99.90
19000;DHT22;9633;50.980;13.850;2023-06-04T04:55:37;9.10;99.90
19000;DHT22;9633;50.980;13.850;2023-06-04T04:57:10;9.20;99.90
19000;DHT22;9633;50.980;13.850;2023-06-04T04:58:49;9.20;99.90
19000;DHT22;9633;50.980;13.850;2023-06-04T05:00:22;9.30;99.90
19000;DHT22;9633;50.980;13.850;2023-06-04T05:01:58;9.30;99.90
19000;DHT22;9633;50.980;13.850;2023-06-04T05:03:32;9.40;99.90
19000;DHT22;9633;50.980;13.850;2023-06-04T05:05:06;9.50;99.90
19000;DHT22;9633;50.980;13.850;2023-06-04T05:06:39;9.60;99.90
19000;DHT22;9633;50.980;13.850;2023-06-04T05:08:12;9.80;99.90
19000;DHT22;9633;50.980;13.850;2023-06-04T05:09:48;9.80;99.90
19000;DHT22;9633;50.980;13.850;2023-06-04T05:11:22;10.00;99.90
19000;DHT22;9633;50.980;13.850;2023-06-04T05:12:57;10.00;99.90
19000;DHT22;9633;50.980;13.850;2023-06-04T05:14:37;10.20;99.90
19000;DHT22;9633;50.980;13.850;2023-06-04T05:16:11;10.30;99.90
19000;DHT22;9633;50.980;13.850;2023-06-04T05:17:46;10.30;99.90
19000;DHT22;9633;50.980;13.850;2023-06-04T05:19:21;10.40;99.90
19000;DHT22;9633;50.980;13.850;2023-06-04T05:20:55;10.60;99.90
19000;DHT22;9633;50.980;13.850;2023-06-04T05:22:29;10.70;93.20
19000;DHT22;9633;50.980;13.850;2023-06-04T05:24:04;10.70;99.90
19000;DHT22;9633;50.980;13.850;2023-06-04T05:25:43;10.70;74.80
19000;DHT22;9633;50.980;13.850;2023-06-04T05:27:17;10.90;31.90
19000;DHT22;9633;50.980;13.850;2023-06-04T05:28:50;10.90;63.30
19000;DHT22;9633;50.980;13.850;2023-06-04T05:30:23;11.00;35.90
19000;DHT22;9633;50.980;13.850;2023-06-04T05:31:56;11.20;80.30
19000;DHT22;9633;50.980;13.850;2023-06-04T05:33:30;11.30;47.00
19000;DHT22;9633;50.980;13.850;2023-06-04T05:35:08;11.50;75.90
19000;DHT22;9633;50.980;13.850;2023-06-04T05:36:43;11.70;1.20
19000;DHT22;9633;50.980;13.850;2023-06-04T05:38:16;11.90;30.70
19000;DHT22;9633;50.980;13.850;2023-06-04T05:39:51;12.00;1.00
19000;DHT22;9633;50.980;13.850;2023-06-04T05:41:25;12.10;18.60
19000;DHT22;9633;50.980;13.850;2023-06-04T05:42:59;12.00;1.00
19000;DHT22;9633;50.980;13.850;2023-06-04T05:44:32;11.80;1.00
19000;DHT22;9633;50.980;13.850;2023-06-04T05:46:06;11.60;18.10
19000;DHT22;9633;50.980;13.850;2023-06-04T05:47:39;12.10;8.60
19000;DHT22;9633;50.980;13.850;2023-06-04T05:49:13;12.70;1.00
19000;DHT22;9633;50.980;13.850;2023-06-04T05:50:46;14.70;1.00
19000;DHT22;9633;50.980;13.850;2023-06-04T05:52:20;16.20;1.00
19000;DHT22;9633;50.980;13.850;2023-06-04T05:53:53;17.00;1.00
19000;DHT22;9633;50.980;13.850;2023-06-04T05:55:26;16.70;3.50
19000;DHT22;9633;50.980;13.850;2023-06-04T05:57:01;16.00;1.00
19000;DHT22;9633;50.980;13.850;2023-06-04T05:58:35;16.00;1.00
19000;DHT22;9633;50.980;13.850;2023-06-04T06:00:11;18.10;1.00
19000;DHT22;9633;50.980;13.850;2023-06-04T06:01:45;16.80;3.40
19000;DHT22;9633;50.980;13.850;2023-06-04T06:03:19;16.80;1.60
19000;DHT22;9633;50.980;13.850;2023-06-04T06:04:54;18.00;1.00
19000;DHT22;9633;50.980;13.850;2023-06-04T06:06:28;17.50;1.00
19000;DHT22;9633;50.980;13.850;2023-06-04T06:08:02;17.30;3.60
19000;DHT22;9633;50.980;13.850;2023-06-04T06:09:35;18.60;7.30
19000;DHT22;9633;50.980;13.850;2023-06-04T06:11:09;19.60;15.20
19000;DHT22;9633;50.980;13.850;2023-06-04T06:12:44;20.10;24.40
19000;DHT22;9633;50.980;13.850;2023-06-04T06:14:17;20.60;27.50
19000;DHT22;9633;50.980;13.850;2023-06-04T06:15:50;20.10;28.10
19000;DHT22;9633;50.980;13.850;2023-06-04T06:17:24;21.80;33.70
19000;DHT22;9633;50.980;13.850;2023-06-04T06:18:59;23.00;29.40
19000;DHT22;9633;50.980;13.850;2023-06-04T06:20:33;23.20;33.10
19000;DHT22;9633;50.980;13.850;2023-06-04T06:22:06;21.10;32.80
19000;DHT22;9633;50.980;13.850;2023-06-04T06:23:40;20.50;31.60
19000;DHT22;9633;50.980;13.850;2023-06-04T06:25:13;21.80;31.30
19000;DHT22;9633;50.980;13.850;2023-06-04T06:27:00;23.50;32.70
19000;DHT22;9633;50.980;13.850;2023-06-04T06:28:34;23.90;32.70
19000;DHT22;9633;50.980;13.850;2023-06-04T06:30:10;23.70;34.40
19000;DHT22;9633;50.980;13.850;2023-06-04T06:31:44;25.90;37.10
19000;DHT22;9633;50.980;13.850;2023-06-04T06:33:17;25.80;42.10
19000;DHT22;9633;50.980;13.850;2023-06-04T06:34:53;23.00;39.40
19000;DHT22;9633;50.980;13.850;2023-06-04T06:36:26;23.20;42.90
19000;DHT22;9633;50.980;13.850;2023-06-04T06:38:00;22.60;40.40
19000;DHT22;9633;50.980;13.850;2023-06-04T06:39:33;23.80;42.10
19000;DHT22;9633;50.980;13.850;2023-06-04T06:41:08;23.50;44.70
19000;DHT22;9633;50.980;13.850;2023-06-04T06:42:41;23.50;40.60
19000;DHT22;9633;50.980;13.850;2023-06-04T06:44:15;23.70;42.20
19000;DHT22;9633;50.980;13.850;2023-06-04T06:45:49;21.10;40.40
19000;DHT22;9633;50.980;13.850;2023-06-04T06:47:22;23.00;45.40
19000;DHT22;9633;50.980;13.850;2023-06-04T06:48:56;23.60;44.20
19000;DHT22;9633;50.980;13.850;2023-06-04T06:50:29;24.80;41.60
19000;DHT22;9633;50.980;13.850;2023-06-04T06:52:03;25.40;42.00
19000;DHT22;9633;50.980;13.850;2023-06-04T06:53:36;24.30;44.20
19000;DHT22;9633;50.980;13.850;2023-06-04T06:55:09;26.10;43.40
19000;DHT22;9633;50.980;13.850;2023-06-04T06:56:43;26.10;41.00
19000;DHT22;9633;50.980;13.850;2023-06-04T06:58:16;25.50;43.20
19000;DHT22;9633;50.980;13.850;2023-06-04T06:59:50;25.00;41.90
19000;DHT22;9633;50.980;13.850;2023-06-04T07:01:25;26.30;42.20
19000;DHT22;9633;50.980;13.850;2023-06-04T07:02:59;23.90;36.20
19000;DHT22;9633;50.980;13.850;2023-06-04T07:04:32;22.60;38.90
19000;DHT22;9633;50.980;13.850;2023-06-04T07:06:05;22.20;37.00
19000;DHT22;9633;50.980;13.850;2023-06-04T07:07:39;24.10;40.90
19000;DHT22;9633;50.980;13.850;2023-06-04T07:09:13;22.20;37.80
19000;DHT22;9633;50.980;13.850;2023-06-04T07:10:46;23.80;40.00
19000;DHT22;9633;50.980;13.850;2023-06-04T07:12:19;26.00;41.00
19000;DHT22;9633;50.980;13.850;2023-06-04T07:13:53;28.10;42.10
19000;DHT22;9633;50.980;13.850;2023-06-04T07:15:28;28.70;42.50
19000;DHT22;9633;50.980;13.850;2023-06-04T07:17:01;27.80;40.20
19000;DHT22;9633;50.980;13.850;2023-06-04T07:18:34;25.30;39.50
19000;DHT22;9633;50.980;13.850;2023-06-04T07:20:08;23.20;39.40
19000;DHT22;9633;50.980;13.850;2023-06-04T07:21:41;22.60;41.70
19000;DHT22;9633;50.980;13.850;2023-06-04T07:23:14;24.50;43.20
19000;DHT22;9633;50.980;13.850;2023-06-04T07:24:47;26.10;41.90
19000;DHT22;9633;50.980;13.850;2023-06-04T07:26:21;25.00;41.60
19000;DHT22;9633;50.980;13.850;2023-06-04T07:27:54;22.30;38.40
19000;DHT22;9633;50.980;13.850;2023-06-04T07:29:29;22.40;41.10
19000;DHT22;9633;50.980;13.850;2023-06-04T07:31:04;24.50;45.90
19000;DHT22;9633;50.980;13.850;2023-06-04T07:32:37;26.90;41.90
19000;DHT22;9633;50.980;13.850;2023-06-04T07:34:11;27.20;41.60
19000;DHT22;9633;50.980;13.850;2023-06-04T07:35:44;28.00;44.70
19000;DHT22;9633;50.980;13.850;2023-06-04T07:37:17;28.60;44.70
19000;DHT22;9633;50.980;13.850;2023-06-04T07:38:50;29.30;44.60
19000;DHT22;9633;50.980;13.850;2023-06-04T07:40:23;27.80;46.20
19000;DHT22;9633;50.980;13.850;2023-06-04T07:41:57;26.50;43.50
19000;DHT22;9633;50.980;13.850;2023-06-04T07:43:30;26.50;45.20
19000;DHT22;9633;50.980;13.850;2023-06-04T07:45:03;26.80;45.40
19000;DHT22;9633;50.980;13.850;2023-06-04T07:46:38;28.50;45.80
19000;DHT22;9633;50.980;13.850;2023-06-04T07:48:12;29.90;38.50
19000;DHT22;9633;50.980;13.850;2023-06-04T07:49:45;26.90;35.60
19000;DHT22;9633;50.980;13.850;2023-06-04T07:51:32;27.90;35.90
19000;DHT22;9633;50.980;13.850;2023-06-04T07:53:06;26.30;34.50
19000;DHT22;9633;50.980;13.850;2023-06-04T07:54:39;26.70;36.60
19000;DHT22;9633;50.980;13.850;2023-06-04T07:56:13;26.30;34.50
19000;DHT22;9633;50.980;13.850;2023-06-04T07:57:46;25.60;34.90
19000;DHT22;9633;50.980;13.850;2023-06-04T07:59:19;26.40;37.10
19000;DHT22;9633;50.980;13.850;2023-06-04T08:00:53;26.90;40.50
19000;DHT22;9633;50.980;13.850;2023-06-04T08:02:28;27.90;38.30
19000;DHT22;9633;50.980;13.850;2023-06-04T08:04:01;29.90;36.70
19000;DHT22;9633;50.980;13.850;2023-06-04T08:05:35;29.60;40.60
19000;DHT22;9633;50.980;13.850;2023-06-04T08:07:09;29.50;38.20
19000;DHT22;9633;50.980;13.850;2023-06-04T08:08:42;26.90;34.30
19000;DHT22;9633;50.980;13.850;2023-06-04T08:10:17;24.20;33.30
19000;DHT22;9633;50.980;13.850;2023-06-04T08:11:50;24.90;35.60
19000;DHT22;9633;50.980;13.850;2023-06-04T08:13:23;27.90;37.20
19000;DHT22;9633;50.980;13.850;2023-06-04T08:14:56;27.70;33.40
19000;DHT22;9633;50.980;13.850;2023-06-04T08:16:31;29.00;34.00
19000;DHT22;9633;50.980;13.850;2023-06-04T08:18:06;28.30;34.20
19000;DHT22;9633;50.980;13.850;2023-06-04T08:19:39;26.40;31.80
19000;DHT22;9633;50.980;13.850;2023-06-04T08:21:12;26.00;33.50
19000;DHT22;9633;50.980;13.850;2023-06-04T08:22:48;27.30;37.10
19000;DHT22;9633;50.980;13.850;2023-06-04T08:24:22;29.40;34.10
19000;DHT22;9633;50.980;13.850;2023-06-04T08:25:55;29.80;36.80
19000;DHT22;9633;50.980;13.850;2023-06-04T08:27:28;30.80;35.30
19000;DHT22;9633;50.980;13.850;2023-06-04T08:29:02;31.30;36.00
19000;DHT22;9633;50.980;13.850;2023-06-04T08:30:35;31.10;36.60
19000;DHT22;9633;50.980;13.850;2023-06-04T08:32:09;31.00;37.60
19000;DHT22;9633;50.980;13.850;2023-06-04T08:33:45;31.10;36.60
19000;DHT22;9633;50.980;13.850;2023-06-04T08:35:18;28.30;34.90
19000;DHT22;9633;50.980;13.850;2023-06-04T08:36:52;28.00;34.80
19000;DHT22;9633;50.980;13.850;2023-06-04T08:38:26;26.70;36.20
19000;DHT22;9633;50.980;13.850;2023-06-04T08:39:59;27.10;36.80
19000;DHT22;9633;50.980;13.850;2023-06-04T08:41:38;28.10;36.20
19000;DHT22;9633;50.980;13.850;2023-06-04T08:43:15;29.30;36.70
19000;DHT22;9633;50.980;13.850;2023-06-04T08:44:50;29.20;35.60
19000;DHT22;9633;50.980;13.850;2023-06-04T08:46:25;29.20;35.30
19000;DHT22;9633;50.980;13.850;2023-06-04T08:48:00;28.60;37.20
19000;DHT22;9633;50.980;13.850;2023-06-04T08:49:36;28.70;36.30
19000;DHT22;9633;50.980;13.850;2023-06-04T08:51:11;28.60;35.40
19000;DHT22;9633;50.980;13.850;2023-06-04T08:52:43;28.30;35.40
19000;DHT22;9633;50.980;13.850;2023-06-04T08:54:16;28.40;36.70
19000;DHT22;9633;50.980;13.850;2023-06-04T08:55:50;28.40;36.30
19000;DHT22;9633;50.980;13.850;2023-06-04T08:57:26;28.20;39.10
19000;DHT22;9633;50.980;13.850;2023-06-04T08:59:01;28.30;40.00
19000;DHT22;9633;50.980;13.850;2023-06-04T09:00:35;28.40;38.30
19000;DHT22;9633;50.980;13.850;2023-06-04T09:02:08;27.80;39.90
19000;DHT22;9633;50.980;13.850;2023-06-04T09:03:41;27.70;39.80
19000;DHT22;9633;50.980;13.850;2023-06-04T09:05:19;27.50;41.10
19000;DHT22;9633;50.980;13.850;2023-06-04T09:06:53;27.70;38.40
19000;DHT22;9633;50.980;13.850;2023-06-04T09:08:31;27.90;38.50
19000;DHT22;9633;50.980;13.850;2023-06-04T09:10:07;28.30;39.00
19000;DHT22;9633;50.980;13.850;2023-06-04T09:11:50;28.60;42.40
19000;DHT22;9633;50.980;13.850;2023-06-04T09:13:31;29.00;39.80
19000;DHT22;9633;50.980;13.850;2023-06-04T09:15:04;28.80;39.20
19000;DHT22;9633;50.980;13.850;2023-06-04T09:16:46;28.60;42.30
19000;DHT22;9633;50.980;13.850;2023-06-04T09:18:19;28.90;36.00
19000;DHT22;9633;50.980;13.850;2023-06-04T09:19:55;28.30;35.70
19000;DHT22;9633;50.980;13.850;2023-06-04T09:21:30;28.80;37.50
19000;DHT22;9633;50.980;13.850;2023-06-04T09:23:12;29.40;42.40
19000;DHT22;9633;50.980;13.850;2023-06-04T09:24:47;28.50;38.50
19000;DHT22;9633;50.980;13.850;2023-06-04T09:26:21;29.30;39.70
19000;DHT22;9633;50.980;13.850;2023-06-04T09:27:56;29.40;38.50
19000;DHT22;9633;50.980;13.850;2023-06-04T09:29:29;29.40;40.10
19000;DHT22;9633;50.980;13.850;2023-06-04T09:31:03;29.60;39.40
19000;DHT22;9633;50.980;13.850;2023-06-04T09:32:37;29.80;40.60
19000;DHT22;9633;50.980;13.850;2023-06-04T09:34:10;29.70;39.50
19000;DHT22;9633;50.980;13.850;2023-06-04T09:35:53;30.30;41.60
19000;DHT22;9633;50.980;13.850;2023-06-04T09:37:28;30.30;37.30
19000;DHT22;9633;50.980;13.850;2023-06-04T09:39:02;30.30;39.50
19000;DHT22;9633;50.980;13.850;2023-06-04T09:40:37;30.10;40.30
19000;DHT22;9633;50.980;13.850;2023-06-04T09:42:10;30.00;40.00
19000;DHT22;9633;50.980;13.850;2023-06-04T09:43:44;30.20;41.80
19000;DHT22;9633;50.980;13.850;2023-06-04T09:45:26;29.40;39.50
19000;DHT22;9633;50.980;13.850;2023-06-04T09:47:00;28.50;40.00
19000;DHT22;9633;50.980;13.850;2023-06-04T09:48:33;28.30;38.90
19000;DHT22;9633;50.980;13.850;2023-06-04T09:50:08;27.80;37.70
19000;DHT22;9633;50.980;13.850;2023-06-04T09:51:48;28.60;40.50
19000;DHT22;9633;50.980;13.850;2023-06-04T09:53:23;29.60;38.90
19000;DHT22;9633;50.980;13.850;2023-06-04T09:54:58;29.40;38.40
19000;DHT22;9633;50.980;13.850;2023-06-04T09:56:39;29.40;36.70
19000;DHT22;9633;50.980;13.850;2023-06-04T09:58:13;29.40;39.80
19000;DHT22;9633;50.980;13.850;2023-06-04T09:59:48;29.50;36.60
19000;DHT22;9633;50.980;13.850;2023-06-04T10:01:23;29.40;38.40
19000;DHT22;9633;50.980;13.850;2023-06-04T10:03:01;29.90;39.60